EDDF

Frankfurt am Main International Airport

Frankfurt-am-Main, Germany
METAR EDDF 232320Z 19009KT 9999 FEW015 BKN018 08/05 Q1023 NOSIG
Observed Flight Rules
Jan-23 @ 23:20 UTC (15 minutes ago) Marginal Visual Flight Rules
Wind Visibility Clouds
190° at 9 knots 10,000+ meters
  • Few at 1,500' AGL
  • Broken at 1,800' AGL
Temperatures Readings
Current 8°C / 46°F
Dewpoint 5°C / 41°F
Humidity 82%
Altimeter 30.21" Hg
Pressure 1023 hPa
Elevation 113
METAR EDDF 232320Z 19009KT 9999 FEW015 BKN018 08/05 Q1023 NOSIG
Observed Flight Rules
Jan-23 @ 23:20 UTC
(15 minutes ago)
MVFR
Wind Visibility
190° at 9 knots 10,000+ meters
Clouds
  • Few at 1,500' AGL
  • Broken at 1,800' AGL
Temperature Dewpoint
8°C / 46°F 5°C / 41°F
Humidity Altimeter Pressure
82% 30.21" Hg 1023 hPa